createdAt,value
2022-11-23T00:01:35.992Z,46.70
2022-11-23T00:04:12.881Z,45.30
2022-11-23T00:06:41.221Z,47.90
2022-11-23T00:09:10.593Z,46.10
2022-11-23T00:11:38.510Z,49.70
2022-11-23T00:14:06.344Z,51.50
2022-11-23T00:16:34.487Z,46.50
2022-11-23T00:19:03.013Z,48.70
2022-11-23T00:21:32.654Z,41.60
2022-11-23T00:24:00.791Z,43.10
2022-11-23T00:26:28.819Z,43.70
2022-11-23T00:28:56.968Z,43.60
2022-11-23T00:31:28.841Z,44.90
2022-11-23T00:33:57.876Z,44.60
2022-11-23T00:36:27.327Z,49.10
2022-11-23T00:38:55.793Z,42.80
2022-11-23T00:41:27.034Z,47.50
2022-11-23T00:43:55.223Z,48.90
2022-11-23T00:46:27.852Z,48.30
2022-11-23T00:48:58.078Z,46.60
2022-11-23T00:51:32.559Z,46.90
2022-11-23T00:54:01.959Z,44.20
2022-11-23T00:56:30.147Z,45.70
2022-11-23T00:58:59.515Z,44.20
2022-11-23T01:01:30.896Z,46.10
2022-11-23T01:03:59.391Z,46.90
2022-11-23T01:06:33.020Z,45.80
2022-11-23T01:09:04.623Z,46.40
2022-11-23T01:11:33.029Z,47.80
2022-11-23T01:14:01.667Z,47.90
2022-11-23T01:16:32.540Z,47.90
2022-11-23T01:19:07.189Z,49.50
2022-11-23T01:21:36.883Z,50.70
2022-11-23T01:24:09.024Z,45.00
2022-11-23T01:26:40.761Z,46.30
2022-11-23T01:29:12.030Z,45.40
2022-11-23T01:31:46.120Z,45.20
2022-11-23T01:34:16.191Z,45.20
2022-11-23T01:36:44.694Z,43.50
2022-11-23T01:39:14.499Z,45.60
2022-11-23T01:41:44.525Z,45.80
2022-11-23T01:44:32.383Z,47.30
2022-11-23T01:47:03.751Z,42.20
2022-11-23T01:49:50.026Z,44.40
2022-11-23T01:52:24.787Z,46.80
2022-11-23T01:54:59.183Z,49.40
2022-11-23T01:57:34.869Z,46.30
2022-11-23T02:00:02.893Z,39.90
2022-11-23T02:02:45.832Z,43.40
2022-11-23T02:05:17.168Z,47.40
2022-11-23T02:07:50.064Z,48.10
2022-11-23T02:10:18.525Z,43.80
2022-11-23T02:12:46.760Z,43.30
2022-11-23T02:15:14.775Z,48.90
2022-11-23T02:17:44.095Z,46.70
2022-11-23T02:20:15.958Z,43.60
2022-11-23T02:23:07.099Z,43.60
2022-11-23T02:25:47.001Z,44.20
2022-11-23T02:28:22.362Z,45.90
2022-11-23T02:30:53.183Z,51.50
2022-11-23T02:33:23.332Z,49.20
2022-11-23T02:35:56.110Z,50.60
2022-11-23T02:38:28.261Z,50.10
2022-11-23T02:40:58.213Z,49.40
2022-11-23T02:43:26.163Z,48.50
2022-11-23T02:46:04.146Z,44.60
2022-11-23T02:48:32.687Z,47.00
2022-11-23T02:51:03.346Z,45.00
2022-11-23T02:53:31.953Z,48.50
2022-11-23T02:55:59.766Z,43.40
2022-11-23T02:58:27.672Z,45.00
2022-11-23T03:00:55.577Z,47.40
2022-11-23T03:03:23.996Z,50.30
2022-11-23T03:05:51.905Z,52.00
2022-11-23T03:08:20.124Z,50.20
2022-11-23T03:10:48.152Z,47.70
2022-11-23T03:13:16.047Z,46.30
2022-11-23T03:15:44.207Z,48.80
2022-11-23T03:18:12.007Z,49.40
2022-11-23T03:20:39.983Z,47.20
2022-11-23T03:23:07.808Z,46.90
2022-11-23T03:25:35.761Z,48.80
2022-11-23T03:28:04.863Z,47.70
2022-11-23T03:30:33.758Z,49.80
2022-11-23T03:33:02.317Z,46.90
2022-11-23T03:35:30.065Z,47.70
2022-11-23T03:38:16.684Z,46.90
2022-11-23T03:40:47.620Z,48.00
2022-11-23T03:43:24.563Z,47.50
2022-11-23T03:45:52.606Z,43.10
2022-11-23T03:48:20.438Z,46.00
2022-11-23T03:50:49.082Z,49.30
2022-11-23T03:53:16.844Z,48.30
2022-11-23T03:55:47.109Z,45.50
2022-11-23T03:58:16.020Z,46.60
2022-11-23T04:00:44.319Z,45.40
2022-11-23T04:03:13.907Z,44.50
2022-11-23T04:06:00.483Z,40.20
2022-11-23T04:08:34.220Z,41.50
2022-11-23T04:11:07.113Z,45.30
2022-11-23T04:13:39.598Z,50.80
2022-11-23T04:16:07.960Z,47.00
2022-11-23T04:18:35.734Z,46.70
2022-11-23T04:21:06.522Z,50.80
2022-11-23T04:23:34.765Z,51.80
2022-11-23T04:26:04.014Z,54.50
2022-11-23T04:28:31.867Z,48.60
2022-11-23T04:30:59.562Z,51.80
2022-11-23T04:33:31.657Z,53.40
2022-11-23T04:35:59.878Z,51.70
2022-11-23T04:38:27.722Z,50.00
2022-11-23T04:40:55.566Z,46.50
2022-11-23T04:43:23.475Z,49.20
2022-11-23T04:45:51.609Z,50.40
2022-11-23T04:48:24.686Z,50.50
2022-11-23T04:50:55.836Z,47.90
2022-11-23T04:53:29.225Z,47.20
2022-11-23T04:55:57.411Z,48.40
2022-11-23T04:58:26.931Z,48.90
2022-11-23T05:00:59.077Z,45.90
2022-11-23T05:03:27.292Z,46.20
2022-11-23T05:05:58.658Z,49.90
2022-11-23T05:08:27.131Z,46.60
2022-11-23T05:11:01.811Z,47.80
2022-11-23T05:13:30.361Z,49.60
2022-11-23T05:16:01.407Z,51.90
2022-11-23T05:18:29.901Z,56.70
2022-11-23T05:20:57.746Z,54.60
2022-11-23T05:23:25.624Z,45.60
2022-11-23T05:25:54.260Z,47.10
2022-11-23T05:28:39.490Z,47.30
2022-11-23T05:31:08.980Z,48.90
2022-11-23T05:33:38.783Z,46.40
2022-11-23T05:36:08.601Z,54.80
2022-11-23T05:38:39.277Z,55.40
2022-11-23T05:41:12.491Z,56.30
2022-11-23T05:43:42.232Z,55.80
2022-11-23T05:46:12.098Z,57.80
2022-11-23T05:48:40.438Z,57.90
2022-11-23T05:51:12.507Z,58.10
2022-11-23T05:53:46.684Z,48.40
2022-11-23T05:56:20.568Z,51.70
2022-11-23T05:59:12.504Z,49.70
2022-11-23T06:01:41.731Z,48.10
2022-11-23T06:04:10.660Z,42.20
2022-11-23T06:06:43.244Z,48.90
2022-11-23T06:09:11.347Z,51.90
2022-11-23T06:11:40.875Z,50.70
2022-11-23T06:14:14.375Z,50.50
2022-11-23T06:16:42.998Z,50.80
2022-11-23T06:19:18.869Z,56.90
2022-11-23T06:21:50.399Z,50.00
2022-11-23T06:24:19.586Z,47.80
2022-11-23T06:26:52.607Z,43.30
2022-11-23T06:29:20.886Z,48.90
2022-11-23T06:31:49.284Z,49.20
2022-11-23T06:34:17.275Z,50.40
2022-11-23T06:36:45.108Z,42.90
2022-11-23T06:39:13.553Z,42.40
2022-11-23T06:41:41.587Z,48.50
2022-11-23T06:44:09.600Z,47.50
2022-11-23T06:46:40.861Z,52.50
2022-11-23T06:49:09.097Z,47.20
2022-11-23T06:51:38.189Z,49.90
2022-11-23T06:54:06.207Z,49.90
2022-11-23T06:56:35.126Z,49.90
2022-11-23T06:59:04.008Z,56.60
2022-11-23T07:01:32.872Z,52.20
2022-11-23T07:04:04.372Z,53.30
2022-11-23T07:06:38.934Z,52.60
2022-11-23T07:09:09.450Z,56.50
2022-11-23T07:11:47.620Z,52.90
2022-11-23T07:14:16.780Z,56.60
2022-11-23T07:16:47.284Z,56.10
2022-11-23T07:19:15.783Z,57.10
2022-11-23T07:21:45.146Z,54.70
2022-11-23T07:24:13.075Z,53.70
2022-11-23T07:26:42.200Z,56.00
2022-11-23T07:29:10.577Z,55.80
2022-11-23T07:31:38.925Z,55.40
2022-11-23T07:34:09.299Z,53.50
2022-11-23T07:36:37.742Z,50.70
2022-11-23T07:39:07.513Z,54.00
2022-11-23T07:41:35.924Z,55.30
2022-11-23T07:44:09.920Z,52.70
2022-11-23T07:46:37.804Z,47.20
2022-11-23T07:49:06.113Z,58.20
2022-11-23T07:51:34.496Z,57.40
2022-11-23T07:54:02.637Z,57.70
2022-11-23T07:56:30.668Z,58.60
2022-11-23T07:58:58.842Z,58.40
2022-11-23T08:01:26.757Z,58.60
2022-11-23T08:03:54.636Z,61.00
2022-11-23T08:06:22.624Z,62.50
2022-11-23T08:08:50.500Z,60.40
2022-11-23T08:11:20.655Z,57.60
2022-11-23T08:13:48.773Z,55.70
2022-11-23T08:16:16.730Z,61.10
2022-11-23T08:18:44.727Z,57.00
2022-11-23T08:21:12.531Z,59.70
2022-11-23T08:23:40.652Z,56.30
2022-11-23T08:26:13.357Z,56.20
2022-11-23T08:28:41.938Z,54.00
2022-11-23T08:31:14.615Z,53.70
2022-11-23T08:33:43.280Z,50.70
2022-11-23T08:36:11.246Z,53.60
2022-11-23T08:38:39.138Z,53.10
2022-11-23T08:41:07.135Z,54.70
2022-11-23T08:43:36.140Z,53.90
2022-11-23T08:46:10.766Z,56.90
2022-11-23T08:48:39.326Z,53.90
2022-11-23T08:51:08.030Z,54.50
2022-11-23T08:53:37.039Z,56.50
2022-11-23T08:56:07.011Z,57.70
2022-11-23T08:58:35.207Z,51.00
2022-11-23T09:01:08.453Z,49.20
2022-11-23T09:03:36.694Z,56.00
2022-11-23T09:06:05.782Z,57.30
2022-11-23T09:08:34.400Z,50.60
2022-11-23T09:11:05.665Z,56.00
2022-11-23T09:13:39.155Z,58.90
2022-11-23T09:16:08.626Z,56.90
2022-11-23T09:18:37.327Z,56.50
2022-11-23T09:21:06.712Z,56.90
2022-11-23T09:23:34.687Z,56.50
2022-11-23T09:26:04.679Z,59.90
2022-11-23T09:28:33.854Z,47.30
2022-11-23T09:31:04.499Z,48.90
2022-11-23T09:33:33.197Z,51.80
2022-11-23T09:36:03.598Z,52.30
2022-11-23T09:38:55.088Z,54.90
2022-11-23T09:41:50.093Z,55.40
2022-11-23T09:44:34.575Z,48.30
2022-11-23T09:47:20.722Z,55.50
2022-11-23T09:50:11.862Z,57.00
2022-11-23T09:52:44.683Z,48.10
2022-11-23T09:55:21.759Z,51.80
2022-11-23T09:57:53.366Z,51.10
2022-11-23T10:00:23.290Z,56.10
2022-11-23T10:02:51.353Z,55.50
2022-11-23T10:05:26.226Z,56.60
2022-11-23T10:08:16.802Z,58.70
2022-11-23T10:10:58.110Z,61.10
2022-11-23T10:13:45.091Z,55.40
2022-11-23T10:16:52.892Z,55.20
2022-11-23T10:19:55.013Z,58.90
2022-11-23T10:22:29.013Z,60.20
2022-11-23T10:24:57.310Z,56.50
2022-11-23T10:27:25.746Z,61.10
2022-11-23T10:29:56.619Z,55.70
2022-11-23T10:32:37.855Z,49.20
2022-11-23T10:35:12.532Z,41.30
2022-11-23T10:37:41.493Z,48.40
2022-11-23T10:40:21.484Z,57.00
2022-11-23T10:42:58.245Z,59.40
2022-11-23T10:45:28.021Z,60.10
2022-11-23T10:48:01.654Z,59.70
2022-11-23T10:50:40.809Z,60.70
2022-11-23T10:53:08.936Z,53.60
2022-11-23T10:55:49.829Z,55.40
2022-11-23T10:58:31.327Z,56.40
2022-11-23T11:01:06.362Z,56.60
2022-11-23T11:03:35.407Z,60.40
2022-11-23T11:06:09.910Z,59.70
2022-11-23T11:09:03.957Z,59.90
2022-11-23T11:11:38.887Z,65.20
2022-11-23T11:14:15.961Z,67.40
2022-11-23T11:16:55.827Z,63.60
2022-11-23T11:19:35.062Z,57.20
2022-11-23T11:22:25.324Z,65.00
2022-11-23T11:24:54.864Z,59.40
2022-11-23T11:27:25.166Z,56.70
2022-11-23T11:30:01.728Z,56.60
2022-11-23T11:32:39.148Z,59.00
2022-11-23T11:35:20.770Z,59.50
2022-11-23T11:37:51.847Z,59.60
2022-11-23T11:40:22.590Z,61.00
2022-11-23T11:42:59.870Z,57.80
2022-11-23T11:46:21.379Z,50.40
2022-11-23T11:48:45.086Z,55.60
2022-11-23T11:51:33.465Z,57.00
2022-11-23T11:54:31.917Z,59.30
2022-11-23T11:57:10.485Z,58.10
2022-11-23T11:59:45.248Z,39.80
2022-11-23T12:02:21.992Z,47.40
2022-11-23T12:05:03.614Z,43.50
2022-11-23T12:08:09.293Z,59.30
2022-11-23T12:10:59.282Z,55.60
2022-11-23T12:13:39.029Z,62.40
2022-11-23T12:16:33.928Z,62.00
2022-11-23T12:19:23.908Z,59.10
2022-11-23T12:22:16.641Z,56.80
2022-11-23T12:25:14.495Z,58.80
2022-11-23T12:28:00.976Z,61.10
2022-11-23T12:30:47.716Z,57.60
2022-11-23T12:33:48.052Z,57.10
2022-11-23T12:36:34.635Z,59.20
2022-11-23T12:39:40.782Z,65.50
2022-11-23T12:42:15.343Z,66.00
2022-11-23T12:45:20.392Z,65.30
2022-11-23T12:48:16.402Z,63.00
2022-11-23T12:51:02.681Z,63.10
2022-11-23T12:54:00.513Z,54.90
2022-11-23T12:57:08.404Z,64.60
2022-11-23T12:59:43.994Z,65.50
2022-11-23T13:02:39.472Z,59.80
2022-11-23T13:05:31.642Z,56.40
2022-11-23T13:08:04.151Z,62.10
2022-11-23T13:11:04.349Z,60.70
2022-11-23T13:13:59.668Z,59.20
2022-11-23T13:16:42.065Z,68.10
2022-11-23T13:19:25.133Z,70.00
2022-11-23T13:22:05.348Z,72.20
2022-11-23T13:24:38.403Z,76.70
2022-11-23T13:27:16.256Z,67.40
2022-11-23T13:29:49.030Z,77.50
2022-11-23T13:32:39.461Z,73.30
2022-11-23T13:35:16.616Z,59.80
2022-11-23T13:38:14.355Z,51.10
2022-11-23T13:40:44.973Z,67.00
2022-11-23T13:43:21.682Z,54.60
2022-11-23T13:46:34.769Z,65.80
2022-11-23T13:49:03.758Z,74.30
2022-11-23T13:51:34.789Z,75.30
2022-11-23T13:54:20.721Z,72.70
2022-11-23T13:56:59.190Z,75.70
2022-11-23T13:59:31.301Z,71.00
2022-11-23T14:01:59.826Z,68.00
2022-11-23T14:04:34.152Z,63.70
2022-11-23T14:07:07.146Z,73.20
2022-11-23T14:09:43.861Z,74.50
2022-11-23T14:12:11.810Z,76.00
2022-11-23T14:14:43.756Z,76.80
2022-11-23T14:17:36.482Z,72.70
2022-11-23T14:20:07.450Z,76.00
2022-11-23T14:22:44.673Z,66.40
2022-11-23T14:25:31.200Z,73.70
2022-11-23T14:28:24.150Z,78.10
2022-11-23T14:31:12.348Z,81.80
2022-11-23T14:33:52.281Z,79.40
2022-11-23T14:36:31.177Z,69.60
2022-11-23T14:39:36.731Z,70.80
2022-11-23T14:42:13.048Z,68.50
2022-11-23T14:44:42.760Z,64.10
2022-11-23T14:47:12.163Z,57.70
2022-11-23T14:49:53.334Z,59.00
2022-11-23T14:52:24.908Z,58.00
2022-11-23T14:54:58.704Z,61.20
2022-11-23T14:57:35.064Z,57.00
2022-11-23T15:00:10.150Z,61.60
2022-11-23T15:02:41.280Z,62.50
2022-11-23T15:05:21.081Z,61.00
2022-11-23T15:07:56.110Z,57.90
2022-11-23T15:10:27.896Z,60.40
2022-11-23T15:12:57.714Z,58.30
2022-11-23T15:15:31.286Z,61.60
2022-11-23T15:18:02.375Z,56.10
2022-11-23T15:20:41.447Z,57.40
2022-11-23T15:23:24.020Z,59.10
2022-11-23T15:25:57.583Z,58.20
2022-11-23T15:28:31.354Z,60.30
2022-11-23T15:30:59.543Z,54.90
2022-11-23T15:33:28.594Z,58.20
2022-11-23T15:35:57.890Z,58.70
2022-11-23T15:38:28.494Z,59.90
2022-11-23T15:41:05.710Z,59.20
2022-11-23T15:43:35.199Z,52.30
2022-11-23T15:46:13.285Z,52.80
2022-11-23T15:48:43.430Z,57.30
2022-11-23T15:51:35.037Z,54.50
2022-11-23T15:54:03.755Z,56.00
2022-11-23T15:56:35.125Z,58.20
2022-11-23T15:59:33.791Z,61.90
2022-11-23T16:02:07.369Z,64.70
2022-11-23T16:04:41.061Z,60.20
2022-11-23T16:07:21.063Z,59.10
2022-11-23T16:10:11.696Z,63.70
2022-11-23T16:12:51.223Z,64.90
2022-11-23T16:15:38.018Z,57.00
2022-11-23T16:18:18.827Z,61.50
2022-11-23T16:20:51.033Z,60.00
2022-11-23T16:23:46.056Z,63.50
2022-11-23T16:26:16.440Z,59.00
2022-11-23T16:29:03.642Z,60.00
2022-11-23T16:31:39.350Z,61.00
2022-11-23T16:34:17.635Z,64.60
2022-11-23T16:36:46.188Z,58.80
2022-11-23T16:39:14.741Z,61.70
2022-11-23T16:41:43.248Z,61.80
2022-11-23T16:44:12.284Z,60.90
2022-11-23T16:46:43.799Z,61.80
2022-11-23T16:49:19.057Z,60.40
2022-11-23T16:51:57.025Z,62.30
2022-11-23T16:54:26.470Z,64.70
2022-11-23T16:56:57.140Z,67.90
2022-11-23T16:59:26.287Z,63.90
2022-11-23T17:01:57.852Z,63.40
2022-11-23T17:04:27.979Z,66.00
2022-11-23T17:07:00.613Z,71.90
2022-11-23T17:09:30.571Z,69.20
2022-11-23T17:11:59.253Z,71.10
2022-11-23T17:14:30.082Z,75.10
2022-11-23T17:17:02.359Z,75.70
2022-11-23T17:19:31.889Z,75.40
2022-11-23T17:22:01.676Z,77.50
2022-11-23T17:24:32.812Z,74.00
2022-11-23T17:27:01.746Z,75.00
2022-11-23T17:29:33.221Z,73.70
2022-11-23T17:32:04.675Z,66.80
2022-11-23T17:34:33.160Z,64.20
2022-11-23T17:37:03.149Z,71.30
2022-11-23T17:39:36.927Z,62.00
2022-11-23T17:42:11.817Z,67.20
2022-11-23T17:44:44.810Z,64.90
2022-11-23T17:47:32.628Z,54.90
2022-11-23T17:50:03.736Z,60.70
2022-11-23T17:52:35.959Z,63.00
2022-11-23T17:55:04.901Z,66.70
2022-11-23T17:57:34.242Z,61.10
2022-11-23T18:00:03.755Z,61.90
2022-11-23T18:02:42.051Z,63.70
2022-11-23T18:05:19.500Z,66.70
2022-11-23T18:07:51.782Z,61.60
2022-11-23T18:10:20.929Z,64.40
2022-11-23T18:12:49.599Z,73.20
2022-11-23T18:15:23.078Z,75.50
2022-11-23T18:17:54.282Z,70.90
2022-11-23T18:20:24.630Z,70.20
2022-11-23T18:22:53.306Z,72.40
2022-11-23T18:25:43.741Z,73.90
2022-11-23T18:28:19.338Z,77.50
2022-11-23T18:30:50.289Z,79.40
2022-11-23T18:33:18.779Z,69.00
2022-11-23T18:35:47.447Z,70.50
2022-11-23T18:38:16.292Z,69.40
2022-11-23T18:40:44.506Z,74.30
2022-11-23T18:43:13.507Z,76.80
2022-11-23T18:45:42.909Z,74.40
2022-11-23T18:48:11.420Z,81.80
2022-11-23T18:50:40.455Z,82.20
2022-11-23T18:53:09.212Z,79.70
2022-11-23T18:55:37.962Z,83.50
2022-11-23T18:58:07.802Z,77.90
2022-11-23T19:00:37.666Z,84.50
2022-11-23T19:03:10.122Z,82.30
2022-11-23T19:05:43.032Z,85.50
2022-11-23T19:08:14.514Z,89.30
2022-11-23T19:10:45.751Z,76.60
2022-11-23T19:13:14.547Z,78.10
2022-11-23T19:15:44.106Z,76.40
2022-11-23T19:18:14.078Z,79.90
2022-11-23T19:20:43.083Z,73.50
2022-11-23T19:23:14.328Z,79.80
2022-11-23T19:25:43.304Z,86.30
2022-11-23T19:28:12.278Z,93.60
2022-11-23T19:30:41.500Z,96.10
2022-11-23T19:33:10.531Z,84.90
2022-11-23T19:35:39.421Z,96.10
2022-11-23T19:38:11.666Z,101.20
2022-11-23T19:40:41.148Z,99.90
2022-11-23T19:43:09.784Z,99.20
2022-11-23T19:45:38.626Z,94.10
2022-11-23T19:48:10.182Z,83.00
2022-11-23T19:50:39.946Z,82.20
2022-11-23T19:53:30.729Z,82.90
2022-11-23T19:56:07.740Z,83.90
2022-11-23T19:58:36.782Z,78.50
2022-11-23T20:01:08.161Z,80.00
2022-11-23T20:03:39.635Z,86.90
2022-11-23T20:06:12.745Z,77.40
2022-11-23T20:08:43.109Z,79.70
2022-11-23T20:11:17.149Z,67.70
2022-11-23T20:13:45.878Z,70.90
2022-11-23T20:16:18.494Z,68.80
2022-11-23T20:18:54.482Z,57.90
2022-11-23T20:21:24.013Z,58.00
2022-11-23T20:24:02.796Z,61.60
2022-11-23T20:26:34.058Z,88.00
2022-11-23T20:29:05.284Z,107.80
2022-11-23T20:31:40.169Z,81.60
2022-11-23T20:34:19.525Z,71.00
2022-11-23T20:36:51.784Z,68.10
2022-11-23T20:39:20.628Z,67.40
2022-11-23T20:41:49.979Z,63.00
2022-11-23T20:44:19.457Z,69.30
2022-11-23T20:47:05.776Z,69.80
2022-11-23T20:49:37.299Z,66.60
2022-11-23T20:52:06.429Z,60.40
2022-11-23T20:54:36.386Z,59.60
2022-11-23T20:57:06.058Z,60.30
2022-11-23T20:59:34.929Z,51.10
2022-11-23T21:02:03.133Z,56.80
2022-11-23T21:04:32.620Z,53.80
2022-11-23T21:07:01.275Z,59.20
2022-11-23T21:09:30.459Z,55.80
2022-11-23T21:12:17.973Z,61.60
2022-11-23T21:14:46.003Z,57.40
2022-11-23T21:17:14.907Z,58.40
2022-11-23T21:19:43.676Z,56.90
2022-11-23T21:22:14.171Z,51.50
2022-11-23T21:24:42.795Z,48.90
2022-11-23T21:27:13.688Z,49.40
2022-11-23T21:29:44.584Z,47.20
2022-11-23T21:32:16.794Z,43.00
2022-11-23T21:34:45.812Z,57.10
2022-11-23T21:37:14.338Z,54.10
2022-11-23T21:39:44.623Z,51.60
2022-11-23T21:42:17.126Z,55.40
2022-11-23T21:44:45.397Z,58.10
2022-11-23T21:47:14.677Z,55.10
2022-11-23T21:49:46.717Z,54.70
2022-11-23T21:52:16.001Z,52.50
2022-11-23T21:54:48.969Z,54.50
2022-11-23T21:57:17.818Z,57.00
2022-11-23T21:59:46.084Z,50.00
2022-11-23T22:02:14.669Z,55.20
2022-11-23T22:04:43.114Z,54.20
2022-11-23T22:07:12.261Z,55.20
2022-11-23T22:09:40.314Z,54.30
2022-11-23T22:12:08.654Z,51.50
2022-11-23T22:14:37.175Z,51.60
2022-11-23T22:17:05.617Z,51.60
2022-11-23T22:19:34.001Z,52.50
2022-11-23T22:22:02.093Z,50.60
2022-11-23T22:24:30.315Z,54.20
2022-11-23T22:26:59.539Z,56.20
2022-11-23T22:29:28.399Z,55.90
2022-11-23T22:31:57.758Z,51.50
2022-11-23T22:34:30.149Z,52.60
2022-11-23T22:36:58.832Z,56.80
2022-11-23T22:39:27.880Z,48.40
2022-11-23T22:41:57.016Z,56.80
2022-11-23T22:44:25.740Z,53.80
2022-11-23T22:46:54.233Z,51.80
2022-11-23T22:49:22.351Z,51.60
2022-11-23T22:51:50.618Z,56.30
2022-11-23T22:54:18.720Z,51.90
2022-11-23T22:56:46.823Z,54.50
2022-11-23T22:59:15.252Z,56.50
2022-11-23T23:01:43.513Z,56.70
2022-11-23T23:04:11.579Z,57.00
2022-11-23T23:06:39.880Z,55.80
2022-11-23T23:09:08.114Z,55.20
2022-11-23T23:11:37.560Z,57.50
2022-11-23T23:14:06.189Z,60.40
2022-11-23T23:16:35.183Z,50.50
2022-11-23T23:19:06.548Z,55.60
2022-11-23T23:21:35.128Z,58.00
2022-11-23T23:24:03.228Z,58.10
2022-11-23T23:26:31.417Z,58.20
2022-11-23T23:29:00.805Z,55.40
2022-11-23T23:31:30.572Z,55.40
2022-11-23T23:33:59.945Z,55.50
2022-11-23T23:36:28.172Z,56.70
2022-11-23T23:38:57.984Z,54.50
2022-11-23T23:41:29.137Z,54.20
2022-11-23T23:43:59.778Z,55.10
2022-11-23T23:46:28.067Z,58.30
2022-11-23T23:48:56.196Z,54.80
2022-11-23T23:51:25.154Z,52.70
2022-11-23T23:53:53.496Z,54.90
2022-11-23T23:56:25.102Z,54.60
2022-11-23T23:58:56.952Z,56.30
